Time;durP1;ratioP1;P1;durP2;ratioP2;P2;SDS_P1;SDS_P2;PMS_P1;PMS_P2;Temp;Humidity;BMP_temperature;BMP_pressure;BME280_temperature;BME280_humidity;BME280_pressure;Samples;Min_cycle;Max_cycle;Signal;HPM_P1;HPM_P2
2021/12/12 00:02:30;;;;;;;8.88;4.97;;;;;;;;;;7382560;19;20366;-73
2021/12/12 00:04:58;;;;;;;8.60;4.60;;;;;;;;;;7385521;19;20084;-72
2021/12/12 00:07:28;;;;;;;8.50;4.70;;;;;;;;;;7386172;19;20459;-73
2021/12/12 00:09:59;;;;;;;7.32;4.63;;;;;;;;;;7383158;19;20472;-73
2021/12/12 00:12:30;;;;;;;8.43;4.53;;;;;;;;;;7381837;19;20017;-73
2021/12/12 00:14:57;;;;;;;7.32;4.60;;;;;;;;;;7379468;19;20443;-73
2021/12/12 00:17:24;;;;;;;7.25;4.18;;;;;;;;;;7384941;19;20031;-73
2021/12/12 00:19:50;;;;;;;6.55;4.28;;;;;;;;;;7381159;19;20346;-71
2021/12/12 00:22:21;;;;;;;8.63;4.82;;;;;;;;;;7377262;19;20108;-73
2021/12/12 00:24:46;;;;;;;6.40;4.10;;;;;;;;;;7380964;19;20014;-73
2021/12/12 00:27:13;;;;;;;6.32;4.20;;;;;;;;;;7383833;19;22351;-73
2021/12/12 00:29:38;;;;;;;5.55;3.90;;;;;;;;;;7385112;19;20010;-72
2021/12/12 00:32:10;;;;;;;7.25;4.65;;;;;;;;;;7382404;19;20009;-73
2021/12/12 00:34:40;;;;;;;6.80;4.25;;;;;;;;;;7382603;19;20011;-73
2021/12/12 00:37:08;;;;;;;8.20;4.30;;;;;;;;;;7385101;19;20027;-72
2021/12/12 00:39:37;;;;;;;7.45;4.40;;;;;;;;;;7382372;19;20434;-72
2021/12/12 00:42:08;;;;;;;6.97;4.18;;;;;;;;;;7379850;19;20022;-73
2021/12/12 00:44:36;;;;;;;6.25;3.88;;;;;;;;;;7384068;19;20022;-73
2021/12/12 00:47:07;;;;;;;7.28;4.75;;;;;;;;;;7383425;19;20519;-73
2021/12/12 00:49:35;;;;;;;6.60;4.07;;;;;;;;;;7379839;19;20472;-73
2021/12/12 00:52:02;;;;;;;7.47;4.63;;;;;;;;;;7381560;19;20576;-73
2021/12/12 00:54:31;;;;;;;8.48;5.43;;;;;;;;;;7379864;19;20745;-73
2021/12/12 00:56:59;;;;;;;8.05;4.72;;;;;;;;;;7383333;19;20716;-73
2021/12/12 00:59:24;;;;;;;6.70;4.53;;;;;;;;;;7379653;19;20006;-73
2021/12/12 01:01:51;;;;;;;8.02;5.00;;;;;;;;;;7381789;19;20029;-73
2021/12/12 01:04:22;;;;;;;7.10;4.70;;;;;;;;;;7381352;19;20002;-73
2021/12/12 01:06:49;;;;;;;6.78;4.57;;;;;;;;;;7380336;19;20010;-73
2021/12/12 01:09:21;;;;;;;9.10;5.47;;;;;;;;;;7381158;19;20520;-73
2021/12/12 01:11:50;;;;;;;7.80;4.63;;;;;;;;;;7381292;19;20010;-73
2021/12/12 01:14:21;;;;;;;7.80;4.93;;;;;;;;;;7383129;19;20027;-73
2021/12/12 01:16:52;;;;;;;7.68;4.60;;;;;;;;;;7380882;19;20006;-73
2021/12/12 01:19:25;;;;;;;6.72;4.38;;;;;;;;;;7381041;19;20007;-73
2021/12/12 01:21:59;;;;;;;10.10;6.07;;;;;;;;;;7380351;19;20014;-73
2021/12/12 01:24:32;;;;;;;6.90;4.20;;;;;;;;;;7382821;19;20111;-73
2021/12/12 01:26:59;;;;;;;7.70;4.65;;;;;;;;;;7380912;19;20014;-73
2021/12/12 01:29:24;;;;;;;8.43;5.00;;;;;;;;;;7380685;19;20045;-73
2021/12/12 01:31:50;;;;;;;6.70;4.43;;;;;;;;;;7379731;19;20010;-75
2021/12/12 01:34:24;;;;;;;6.40;4.57;;;;;;;;;;7380783;19;20021;-73
2021/12/12 01:37:22;;;;;;;7.82;4.25;;;;;;;;;;7380318;19;20017;-73
2021/12/12 01:39:47;;;;;;;7.55;4.57;;;;;;;;;;7379797;19;20015;-72
2021/12/12 01:42:21;;;;;;;7.45;4.65;;;;;;;;;;7385736;19;20006;-73
2021/12/12 01:44:51;;;;;;;7.50;4.45;;;;;;;;;;7389847;19;20030;-73
2021/12/12 01:47:24;;;;;;;5.75;3.95;;;;;;;;;;7382063;19;20457;-73
2021/12/12 01:49:55;;;;;;;7.10;4.88;;;;;;;;;;7379906;19;20006;-73
2021/12/12 01:52:23;;;;;;;7.95;4.85;;;;;;;;;;7379506;19;20018;-73
2021/12/12 01:54:52;;;;;;;9.35;4.78;;;;;;;;;;7380095;19;20039;-73
2021/12/12 01:57:32;;;;;;;8.93;5.22;;;;;;;;;;7382243;19;20421;-73
2021/12/12 02:00:00;;;;;;;8.57;4.68;;;;;;;;;;7381119;19;20019;-73
2021/12/12 02:02:30;;;;;;;8.10;4.72;;;;;;;;;;7379010;19;20539;-73
2021/12/12 02:05:01;;;;;;;7.22;4.38;;;;;;;;;;7380984;19;20018;-73
2021/12/12 02:07:31;;;;;;;7.10;4.68;;;;;;;;;;7379713;19;20014;-74
2021/12/12 02:10:05;;;;;;;6.93;4.85;;;;;;;;;;7379929;19;20010;-73
2021/12/12 02:12:32;;;;;;;8.70;5.20;;;;;;;;;;7379248;19;20326;-73
2021/12/12 02:14:58;;;;;;;8.05;4.68;;;;;;;;;;7380353;19;20014;-73
2021/12/12 02:17:33;;;;;;;8.68;4.82;;;;;;;;;;7381360;19;20021;-73
2021/12/12 02:22:52;;;;;;;8.43;4.70;;;;;;;;;;7379155;19;20560;-74
2021/12/12 02:36:19;;;;;;;7.30;4.53;;;;;;;;;;7380463;19;20054;-73
2021/12/12 02:38:50;;;;;;;8.77;4.70;;;;;;;;;;7380237;19;20380;-74
2021/12/12 02:41:17;;;;;;;5.82;3.88;;;;;;;;;;7378413;19;20017;-73
2021/12/12 02:43:50;;;;;;;8.60;4.65;;;;;;;;;;7379037;19;20374;-73
2021/12/12 02:46:20;;;;;;;7.55;4.72;;;;;;;;;;7382275;19;20026;-73
2021/12/12 02:48:47;;;;;;;8.07;4.53;;;;;;;;;;7389149;19;20453;-74
2021/12/12 02:51:17;;;;;;;7.80;4.72;;;;;;;;;;7385414;19;20461;-73
2021/12/12 02:53:53;;;;;;;7.82;4.55;;;;;;;;;;7388790;19;20015;-73
2021/12/12 02:56:28;;;;;;;10.40;4.50;;;;;;;;;;7383176;19;20021;-73
2021/12/12 02:58:54;;;;;;;7.85;4.78;;;;;;;;;;7386446;19;20006;-73
2021/12/12 03:01:48;;;;;;;9.30;4.88;;;;;;;;;;7385589;19;20312;-73
2021/12/12 03:04:13;;;;;;;5.25;3.38;;;;;;;;;;7384964;19;20111;-73
2021/12/12 03:06:41;;;;;;;8.70;4.68;;;;;;;;;;7386546;19;20010;-73
2021/12/12 03:09:12;;;;;;;6.82;3.70;;;;;;;;;;7386388;19;20623;-73
2021/12/12 03:11:37;;;;;;;7.32;4.90;;;;;;;;;;7386019;19;20414;-73
2021/12/12 03:14:04;;;;;;;8.00;4.82;;;;;;;;;;7387666;19;20035;-73
2021/12/12 03:16:31;;;;;;;8.65;5.03;;;;;;;;;;7384684;19;20040;-73
2021/12/12 03:18:57;;;;;;;8.10;5.43;;;;;;;;;;7384047;19;20432;-73
2021/12/12 03:21:31;;;;;;;8.82;4.63;;;;;;;;;;7386211;19;20513;-73
2021/12/12 03:24:00;;;;;;;7.30;4.72;;;;;;;;;;7382226;19;20003;-73
2021/12/12 03:26:26;;;;;;;7.97;4.80;;;;;;;;;;7383703;19;20014;-73
2021/12/12 03:28:55;;;;;;;7.85;4.50;;;;;;;;;;7387062;19;20002;-73
2021/12/12 03:31:33;;;;;;;9.70;4.57;;;;;;;;;;7385218;19;20437;-74
2021/12/12 03:34:00;;;;;;;8.48;5.07;;;;;;;;;;7384537;19;20334;-73
2021/12/12 03:36:27;;;;;;;6.63;4.18;;;;;;;;;;7383749;19;20435;-73
2021/12/12 03:38:58;;;;;;;7.00;4.53;;;;;;;;;;7384666;19;20039;-73
2021/12/12 03:41:28;;;;;;;8.38;5.07;;;;;;;;;;7383254;19;20018;-73
2021/12/12 03:43:59;;;;;;;7.78;5.15;;;;;;;;;;7383919;19;20019;-73
2021/12/12 03:46:26;;;;;;;8.57;4.03;;;;;;;;;;7385104;19;20678;-73
2021/12/12 03:48:53;;;;;;;6.40;4.32;;;;;;;;;;7384802;19;20078;-73
2021/12/12 03:51:21;;;;;;;9.95;5.28;;;;;;;;;;7384192;19;20516;-73
2021/12/12 03:53:47;;;;;;;9.75;4.90;;;;;;;;;;7384049;19;20499;-73
2021/12/12 03:56:14;;;;;;;7.72;4.68;;;;;;;;;;7386163;19;20062;-73
2021/12/12 03:58:40;;;;;;;5.97;4.47;;;;;;;;;;7382877;19;20011;-72
2021/12/12 04:01:09;;;;;;;6.28;4.72;;;;;;;;;;7379809;19;20499;-73
2021/12/12 04:03:35;;;;;;;8.38;4.38;;;;;;;;;;7383899;19;20009;-73
2021/12/12 04:06:04;;;;;;;7.80;4.35;;;;;;;;;;7384424;19;20025;-73
2021/12/12 04:08:34;;;;;;;7.15;4.05;;;;;;;;;;7383308;19;20298;-73
2021/12/12 04:11:00;;;;;;;6.93;4.10;;;;;;;;;;7384499;19;20038;-73
2021/12/12 04:13:26;;;;;;;8.20;4.40;;;;;;;;;;7384317;19;20011;-73
2021/12/12 04:15:53;;;;;;;6.07;4.32;;;;;;;;;;7383715;19;20016;-73
2021/12/12 04:18:21;;;;;;;7.18;4.30;;;;;;;;;;7382782;19;20868;-73
2021/12/12 04:20:46;;;;;;;7.50;4.25;;;;;;;;;;7383505;19;20010;-73
2021/12/12 04:23:24;;;;;;;7.47;4.63;;;;;;;;;;7381362;19;20447;-73
2021/12/12 04:25:49;;;;;;;11.05;5.55;;;;;;;;;;7384257;19;20007;-73
2021/12/12 04:28:16;;;;;;;7.95;4.80;;;;;;;;;;7383630;19;20003;-73
2021/12/12 04:30:41;;;;;;;8.85;5.13;;;;;;;;;;7380882;19;20017;-73
2021/12/12 04:33:07;;;;;;;9.15;4.63;;;;;;;;;;7384834;19;20010;-72
2021/12/12 04:35:32;;;;;;;7.22;4.60;;;;;;;;;;7384806;19;20011;-73
2021/12/12 04:38:00;;;;;;;7.47;4.45;;;;;;;;;;7383340;19;20020;-73
2021/12/12 04:40:29;;;;;;;9.52;4.38;;;;;;;;;;7382149;19;20011;-73
2021/12/12 04:42:55;;;;;;;10.32;4.75;;;;;;;;;;7383444;19;20118;-72
2021/12/12 04:46:04;;;;;;;8.02;4.75;;;;;;;;;;7380624;19;20003;-73
2021/12/12 04:51:42;;;;;;;10.40;4.93;;;;;;;;;;7382014;19;20498;-73
2021/12/12 04:54:19;;;;;;;8.65;4.13;;;;;;;;;;7382075;19;20011;-73
2021/12/12 04:57:06;;;;;;;6.10;3.90;;;;;;;;;;7380006;19;19998;-74
2021/12/12 04:59:42;;;;;;;5.60;3.90;;;;;;;;;;7378524;19;20023;-73
2021/12/12 05:02:25;;;;;;;7.35;4.53;;;;;;;;;;7378668;19;20044;-73
2021/12/12 05:05:08;;;;;;;10.45;4.93;;;;;;;;;;7380948;19;20006;-73
2021/12/12 05:07:43;;;;;;;10.32;5.40;;;;;;;;;;7383244;19;20348;-74
2021/12/12 05:10:25;;;;;;;7.00;4.10;;;;;;;;;;7379386;19;20031;-73
2021/12/12 05:13:03;;;;;;;8.63;4.38;;;;;;;;;;7382111;19;20011;-73
2021/12/12 05:15:31;;;;;;;10.27;4.40;;;;;;;;;;7381311;19;20047;-72
2021/12/12 05:18:04;;;;;;;11.50;4.43;;;;;;;;;;7382462;19;20031;-72
2021/12/12 05:20:34;;;;;;;10.73;4.93;;;;;;;;;;7380645;19;20017;-76
2021/12/12 05:23:05;;;;;;;10.20;3.75;;;;;;;;;;7380600;19;20085;-73
2021/12/12 05:25:48;;;;;;;7.00;3.53;;;;;;;;;;7380368;19;20583;-73
2021/12/12 05:28:18;;;;;;;11.20;4.85;;;;;;;;;;7380795;19;20122;-76
2021/12/12 05:30:44;;;;;;;9.63;4.72;;;;;;;;;;7380834;19;20377;-72
2021/12/12 05:33:13;;;;;;;9.18;4.88;;;;;;;;;;7382963;19;20016;-72
2021/12/12 05:35:40;;;;;;;11.80;4.75;;;;;;;;;;7381282;19;20134;-73
2021/12/12 05:38:07;;;;;;;5.43;3.33;;;;;;;;;;7379538;19;19999;-72
2021/12/12 05:40:36;;;;;;;4.97;3.15;;;;;;;;;;7380251;19;20014;-74
2021/12/12 05:43:04;;;;;;;4.47;3.05;;;;;;;;;;7381195;19;20014;-72
2021/12/12 05:45:31;;;;;;;5.05;3.40;;;;;;;;;;7381542;19;20011;-73
2021/12/12 05:47:58;;;;;;;5.32;3.42;;;;;;;;;;7381552;19;20062;-72
2021/12/12 05:50:24;;;;;;;5.00;3.35;;;;;;;;;;7374152;19;20104;-72
2021/12/12 05:52:54;;;;;;;3.83;2.65;;;;;;;;;;7378013;19;20003;-72
2021/12/12 05:55:21;;;;;;;4.68;3.13;;;;;;;;;;7378799;19;20469;-76
2021/12/12 05:57:53;;;;;;;4.82;3.15;;;;;;;;;;7372351;19;20031;-72
2021/12/12 06:00:20;;;;;;;5.80;3.03;;;;;;;;;;7378445;19;20141;-72
2021/12/12 06:02:46;;;;;;;5.30;3.75;;;;;;;;;;7376937;19;20007;-74
2021/12/12 06:05:11;;;;;;;6.25;3.63;;;;;;;;;;7375429;19;20562;-76
2021/12/12 06:07:39;;;;;;;6.03;3.78;;;;;;;;;;7378303;19;20011;-72
2021/12/12 06:10:12;;;;;;;4.90;3.83;;;;;;;;;;7379754;19;20070;-74
2021/12/12 06:12:39;;;;;;;4.93;3.47;;;;;;;;;;7378141;19;20006;-75
2021/12/12 06:15:12;;;;;;;5.88;3.28;;;;;;;;;;7379094;19;20018;-73
2021/12/12 06:17:38;;;;;;;5.53;3.72;;;;;;;;;;7373338;19;20021;-73
2021/12/12 06:20:06;;;;;;;5.95;3.65;;;;;;;;;;7375130;19;20010;-73
2021/12/12 06:22:32;;;;;;;6.88;3.35;;;;;;;;;;7369891;19;20863;-73
2021/12/12 06:24:57;;;;;;;6.30;3.70;;;;;;;;;;7373506;19;20026;-72
2021/12/12 06:27:23;;;;;;;6.75;3.53;;;;;;;;;;7379979;19;20358;-73
2021/12/12 06:29:51;;;;;;;6.60;3.50;;;;;;;;;;7377926;19;20007;-73
2021/12/12 06:32:17;;;;;;;5.60;3.63;;;;;;;;;;7380201;19;20011;-74
2021/12/12 06:34:44;;;;;;;5.95;3.22;;;;;;;;;;7380596;19;20010;-73
2021/12/12 06:37:10;;;;;;;5.85;3.28;;;;;;;;;;7377805;19;20421;-75
2021/12/12 06:39:37;;;;;;;5.93;3.38;;;;;;;;;;7377594;19;20003;-74
2021/12/12 06:42:05;;;;;;;5.18;3.17;;;;;;;;;;7377079;19;20093;-74
2021/12/12 06:44:31;;;;;;;5.53;3.25;;;;;;;;;;7365409;19;20018;-73
2021/12/12 06:46:59;;;;;;;5.25;3.55;;;;;;;;;;7360130;19;20468;-72
2021/12/12 06:49:25;;;;;;;4.53;3.00;;;;;;;;;;7360069;19;20025;-73
2021/12/12 06:51:55;;;;;;;5.68;3.67;;;;;;;;;;7354369;19;20021;-72
2021/12/12 06:54:24;;;;;;;5.00;3.20;;;;;;;;;;7359596;19;20018;-72
2021/12/12 06:56:52;;;;;;;4.93;3.17;;;;;;;;;;7357938;19;20460;-72
2021/12/12 06:59:21;;;;;;;5.57;3.55;;;;;;;;;;7351890;19;20076;-72
2021/12/12 07:01:49;;;;;;;5.63;3.88;;;;;;;;;;7360489;19;20014;-72
2021/12/12 07:04:18;;;;;;;5.10;3.45;;;;;;;;;;7314661;19;20434;-72
2021/12/12 07:06:45;;;;;;;9.07;6.05;;;;;;;;;;7360340;19;20373;-72
2021/12/12 07:09:11;;;;;;;7.28;4.70;;;;;;;;;;7358783;19;20143;-71
2021/12/12 07:11:39;;;;;;;10.07;6.30;;;;;;;;;;7366969;19;20745;-72
2021/12/12 07:14:06;;;;;;;6.43;4.03;;;;;;;;;;7361256;19;20038;-72
2021/12/12 07:16:32;;;;;;;5.38;3.55;;;;;;;;;;7370065;19;20011;-72
2021/12/12 07:18:58;;;;;;;4.22;3.17;;;;;;;;;;7376582;19;20046;-72
2021/12/12 07:21:24;;;;;;;3.95;2.83;;;;;;;;;;7374120;19;20011;-72
2021/12/12 07:23:50;;;;;;;3.25;2.40;;;;;;;;;;7375114;19;20125;-72
2021/12/12 07:26:17;;;;;;;3.15;2.58;;;;;;;;;;7371657;19;20153;-73
2021/12/12 07:28:44;;;;;;;4.30;2.90;;;;;;;;;;7378333;19;20021;-73
2021/12/12 07:31:14;;;;;;;4.85;3.20;;;;;;;;;;7373876;19;20147;-75
2021/12/12 07:33:40;;;;;;;5.68;2.80;;;;;;;;;;7380816;19;20443;-73
2021/12/12 07:36:08;;;;;;;4.00;2.80;;;;;;;;;;7383242;19;20010;-72
2021/12/12 07:38:35;;;;;;;6.15;3.55;;;;;;;;;;7380902;19;20010;-73
2021/12/12 07:41:02;;;;;;;4.07;2.72;;;;;;;;;;7383411;19;20021;-72
2021/12/12 07:43:29;;;;;;;5.20;2.58;;;;;;;;;;7380859;19;20010;-73
2021/12/12 07:45:55;;;;;;;4.70;3.00;;;;;;;;;;7379367;19;20734;-72
2021/12/12 07:48:21;;;;;;;5.07;3.20;;;;;;;;;;7379632;19;20121;-73
2021/12/12 07:50:47;;;;;;;3.83;2.88;;;;;;;;;;7372457;19;20046;-72
2021/12/12 07:53:13;;;;;;;4.47;3.03;;;;;;;;;;7380663;19;20021;-72
2021/12/12 07:55:39;;;;;;;4.03;2.92;;;;;;;;;;7382198;19;20389;-72
2021/12/12 07:58:13;;;;;;;5.20;3.50;;;;;;;;;;7380961;19;20014;-72
2021/12/12 08:00:41;;;;;;;5.63;3.10;;;;;;;;;;7374268;19;20011;-73
2021/12/12 08:03:08;;;;;;;6.60;3.08;;;;;;;;;;7381403;19;20021;-73
2021/12/12 08:05:36;;;;;;;2.70;2.03;;;;;;;;;;7379582;19;20829;-72
2021/12/12 08:08:07;;;;;;;3.40;2.40;;;;;;;;;;7378726;19;20031;-73
2021/12/12 08:10:34;;;;;;;3.20;2.03;;;;;;;;;;7382506;19;20104;-73
2021/12/12 08:13:00;;;;;;;3.15;2.30;;;;;;;;;;7377243;19;20495;-73
2021/12/12 08:15:27;;;;;;;3.67;2.47;;;;;;;;;;7378253;19;20011;-72
2021/12/12 08:17:54;;;;;;;3.20;2.38;;;;;;;;;;7373401;19;20014;-73
2021/12/12 08:20:20;;;;;;;3.47;2.72;;;;;;;;;;7379977;19;20015;-72
2021/12/12 08:22:47;;;;;;;3.03;2.30;;;;;;;;;;7376233;19;20009;-73
2021/12/12 08:25:15;;;;;;;3.70;2.30;;;;;;;;;;7379513;19;20014;-73
2021/12/12 08:27:41;;;;;;;3.70;2.35;;;;;;;;;;7384113;19;20066;-73
2021/12/12 08:30:08;;;;;;;2.92;2.17;;;;;;;;;;7383850;19;20019;-73
2021/12/12 08:32:34;;;;;;;4.05;2.65;;;;;;;;;;7376068;19;20018;-73
2021/12/12 08:34:59;;;;;;;3.28;2.47;;;;;;;;;;7378892;19;20529;-73
2021/12/12 08:37:29;;;;;;;4.07;2.75;;;;;;;;;;7381244;19;20022;-73
2021/12/12 08:39:55;;;;;;;2.70;2.10;;;;;;;;;;7382723;19;20010;-73
2021/12/12 08:42:26;;;;;;;4.53;2.70;;;;;;;;;;7374888;19;20030;-73
2021/12/12 08:44:55;;;;;;;3.53;2.72;;;;;;;;;;7381964;19;20378;-73
2021/12/12 08:47:21;;;;;;;4.05;2.55;;;;;;;;;;7383776;19;20524;-73
2021/12/12 08:49:48;;;;;;;3.38;2.00;;;;;;;;;;7383578;19;20086;-73
2021/12/12 08:52:21;;;;;;;2.60;2.17;;;;;;;;;;7377664;19;20014;-75
2021/12/12 08:54:50;;;;;;;4.05;2.45;;;;;;;;;;7376182;19;20009;-73
2021/12/12 08:57:45;;;;;;;6.43;2.60;;;;;;;;;;7363474;19;20152;-75
2021/12/12 09:00:16;;;;;;;4.45;2.83;;;;;;;;;;7365859;19;20394;-75
2021/12/12 09:02:42;;;;;;;3.90;2.75;;;;;;;;;;7361076;19;20009;-73
2021/12/12 09:05:18;;;;;;;3.95;2.83;;;;;;;;;;7370777;19;20027;-73
2021/12/12 09:07:49;;;;;;;4.03;2.58;;;;;;;;;;7377095;19;20324;-74
2021/12/12 09:10:21;;;;;;;2.78;2.47;;;;;;;;;;7375542;19;20011;-72
2021/12/12 09:12:54;;;;;;;5.13;2.80;;;;;;;;;;7372700;19;20419;-73
2021/12/12 09:15:35;;;;;;;3.08;2.50;;;;;;;;;;7371797;19;20342;-73
2021/12/12 09:18:06;;;;;;;4.18;2.63;;;;;;;;;;7373872;19;20047;-73
2021/12/12 09:20:47;;;;;;;3.85;2.55;;;;;;;;;;7379081;19;20034;-74
2021/12/12 09:23:37;;;;;;;5.57;3.40;;;;;;;;;;7363169;19;20330;-73
2021/12/12 09:26:06;;;;;;;5.60;3.70;;;;;;;;;;7168196;19;3009328;-75
2021/12/12 09:28:37;;;;;;;7.03;4.82;;;;;;;;;;7355331;19;20047;-73
2021/12/12 09:31:06;;;;;;;5.63;3.80;;;;;;;;;;7366954;19;20025;-73
2021/12/12 09:33:55;;;;;;;4.97;3.10;;;;;;;;;;7368613;19;20006;-73
2021/12/12 09:36:55;;;;;;;3.78;2.55;;;;;;;;;;7372650;19;20014;-73
2021/12/12 09:39:36;;;;;;;3.28;2.60;;;;;;;;;;7369204;19;20045;-73
2021/12/12 09:42:20;;;;;;;3.75;2.75;;;;;;;;;;7371236;19;20157;-73
2021/12/12 09:45:11;;;;;;;5.00;3.40;;;;;;;;;;7368756;19;21439;-72
2021/12/12 09:47:59;;;;;;;4.00;2.92;;;;;;;;;;7379456;19;20046;-73
2021/12/12 09:53:48;;;;;;;4.80;3.00;;;;;;;;;;7365033;19;20082;-72
2021/12/12 09:56:51;;;;;;;5.45;3.53;;;;;;;;;;7370211;19;20023;-72
2021/12/12 09:59:45;;;;;;;4.30;3.28;;;;;;;;;;7371284;19;20052;-72
2021/12/12 10:02:45;;;;;;;4.40;3.08;;;;;;;;;;7369285;19;20028;-72
2021/12/12 10:05:30;;;;;;;3.30;2.63;;;;;;;;;;7373131;19;20006;-72
2021/12/12 10:08:07;;;;;;;3.83;3.00;;;;;;;;;;7358498;19;20334;-72
2021/12/12 10:10:40;;;;;;;4.22;3.25;;;;;;;;;;7355589;19;20022;-72
2021/12/12 10:13:41;;;;;;;4.93;3.92;;;;;;;;;;7376170;19;20025;-72
2021/12/12 10:16:33;;;;;;;5.68;3.75;;;;;;;;;;7373376;19;20496;-73
2021/12/12 10:19:08;;;;;;;5.93;3.67;;;;;;;;;;7360541;19;20010;-72
2021/12/12 10:21:45;;;;;;;5.82;3.95;;;;;;;;;;7358592;19;20455;-73
2021/12/12 10:24:32;;;;;;;4.78;3.67;;;;;;;;;;7367315;19;20417;-72
2021/12/12 10:27:08;;;;;;;6.70;4.00;;;;;;;;;;7369574;19;20010;-72
2021/12/12 10:29:49;;;;;;;6.72;4.15;;;;;;;;;;7350110;19;20011;-73
2021/12/12 10:32:21;;;;;;;6.93;4.45;;;;;;;;;;7359414;19;20127;-72
2021/12/12 10:35:14;;;;;;;7.20;4.72;;;;;;;;;;7366973;19;20036;-72
2021/12/12 10:37:55;;;;;;;6.80;3.97;;;;;;;;;;7367161;19;20405;-74
2021/12/12 10:40:29;;;;;;;6.82;4.53;;;;;;;;;;7370097;19;20007;-73
2021/12/12 10:42:59;;;;;;;5.18;4.10;;;;;;;;;;7362160;19;20472;-72
2021/12/12 10:45:32;;;;;;;6.82;4.20;;;;;;;;;;7375161;19;20086;-72
2021/12/12 10:48:04;;;;;;;5.72;4.25;;;;;;;;;;7371914;19;20003;-72
2021/12/12 10:50:48;;;;;;;6.65;4.20;;;;;;;;;;7374682;19;20440;-72
2021/12/12 10:53:42;;;;;;;6.88;4.38;;;;;;;;;;7371841;19;20099;-73
2021/12/12 10:56:26;;;;;;;6.65;4.35;;;;;;;;;;7367302;19;20007;-72
2021/12/12 10:58:58;;;;;;;9.68;5.80;;;;;;;;;;7371921;19;20014;-72
2021/12/12 11:01:32;;;;;;;7.93;5.18;;;;;;;;;;7370284;19;20024;-72
2021/12/12 11:04:15;;;;;;;6.07;4.03;;;;;;;;;;7363874;19;20018;-73
2021/12/12 11:07:04;;;;;;;7.20;4.50;;;;;;;;;;7371092;19;20070;-72
2021/12/12 11:09:36;;;;;;;6.43;4.25;;;;;;;;;;7369785;19;20117;-72
2021/12/12 11:12:22;;;;;;;6.72;4.30;;;;;;;;;;7371111;19;20007;-72
2021/12/12 11:15:11;;;;;;;10.40;4.55;;;;;;;;;;7378461;19;20011;-72
2021/12/12 11:17:50;;;;;;;5.82;4.30;;;;;;;;;;7378852;19;20002;-72
2021/12/12 11:20:24;;;;;;;7.35;4.45;;;;;;;;;;7380244;19;20015;-73
2021/12/12 11:23:30;;;;;;;5.80;4.10;;;;;;;;;;7377698;19;20013;-73
2021/12/12 11:26:03;;;;;;;7.82;4.13;;;;;;;;;;7379342;19;20043;-72
2021/12/12 11:28:54;;;;;;;5.88;4.35;;;;;;;;;;7375337;19;20047;-73
2021/12/12 11:31:25;;;;;;;6.03;4.18;;;;;;;;;;7376067;19;20134;-72
2021/12/12 11:33:53;;;;;;;5.32;3.70;;;;;;;;;;7378011;19;20010;-72
2021/12/12 11:36:27;;;;;;;5.05;3.60;;;;;;;;;;7378237;19;20099;-73
2021/12/12 11:39:14;;;;;;;5.60;3.92;;;;;;;;;;7380095;19;20003;-73
2021/12/12 11:41:56;;;;;;;7.88;4.40;;;;;;;;;;7379422;19;20749;-73
2021/12/12 11:44:38;;;;;;;7.03;4.13;;;;;;;;;;7375585;19;20014;-72
2021/12/12 11:47:17;;;;;;;5.38;3.78;;;;;;;;;;7380747;19;20453;-72
2021/12/12 11:49:51;;;;;;;7.82;4.85;;;;;;;;;;7370216;19;20087;-72
2021/12/12 11:52:31;;;;;;;7.28;4.50;;;;;;;;;;7368229;19;20011;-72
2021/12/12 11:55:12;;;;;;;5.55;4.07;;;;;;;;;;7370367;19;21696;-73
2021/12/12 11:57:48;;;;;;;5.05;3.80;;;;;;;;;;7362467;19;20460;-73
2021/12/12 12:00:21;;;;;;;5.32;3.60;;;;;;;;;;7363977;19;20014;-72
2021/12/12 12:03:05;;;;;;;5.45;3.53;;;;;;;;;;7373694;19;20098;-72
2021/12/12 12:05:36;;;;;;;5.65;3.60;;;;;;;;;;7362967;19;20096;-72
2021/12/12 12:08:17;;;;;;;7.05;4.07;;;;;;;;;;7360880;19;20027;-72
2021/12/12 12:11:03;;;;;;;6.10;4.30;;;;;;;;;;7361158;19;20014;-72
2021/12/12 12:13:46;;;;;;;4.75;3.85;;;;;;;;;;7369636;19;20533;-73
2021/12/12 12:16:35;;;;;;;7.68;4.70;;;;;;;;;;7373301;19;20011;-72
2021/12/12 12:19:21;;;;;;;4.85;3.42;;;;;;;;;;7374782;19;20014;-72
2021/12/12 12:22:08;;;;;;;7.20;4.40;;;;;;;;;;7384741;19;20010;-72
2021/12/12 12:24:43;;;;;;;6.50;4.10;;;;;;;;;;7381114;19;20006;-72
2021/12/12 12:27:13;;;;;;;4.88;3.88;;;;;;;;;;7339377;19;20002;-72
2021/12/12 12:29:45;;;;;;;5.97;3.80;;;;;;;;;;7382237;19;20010;-73
2021/12/12 12:32:47;;;;;;;5.57;3.50;;;;;;;;;;7379113;19;20437;-73
2021/12/12 12:35:19;;;;;;;6.35;3.78;;;;;;;;;;7383685;19;20532;-73
2021/12/12 12:38:15;;;;;;;5.50;3.65;;;;;;;;;;7379786;19;20584;-73
2021/12/12 12:40:59;;;;;;;;;;;;;;;;;;7381682;19;20027;-72
2021/12/12 12:44:02;;;;;;;7.20;3.97;;;;;;;;;;7382198;19;19927;-73
2021/12/12 12:47:05;;;;;;;5.03;3.67;;;;;;;;;;7379475;19;20738;-72
2021/12/12 12:50:27;;;;;;;5.45;3.70;;;;;;;;;;7382705;19;20540;-73
2021/12/12 12:53:11;;;;;;;6.47;3.92;;;;;;;;;;7381999;19;20110;-73
2021/12/12 12:56:06;;;;;;;5.78;3.75;;;;;;;;;;7384555;19;21494;-73
2021/12/12 12:59:09;;;;;;;5.43;3.50;;;;;;;;;;7380332;19;20031;-71
2021/12/12 13:01:59;;;;;;;6.22;3.80;;;;;;;;;;7381619;19;20469;-74
2021/12/12 13:04:35;;;;;;;5.18;3.63;;;;;;;;;;7378588;19;20023;-72
2021/12/12 13:07:25;;;;;;;5.78;4.22;;;;;;;;;;7383627;19;20035;-72
2021/12/12 13:09:59;;;;;;;8.15;3.45;;;;;;;;;;7376296;19;20015;-73
2021/12/12 13:12:44;;;;;;;4.85;3.35;;;;;;;;;;7382277;19;20404;-73
2021/12/12 13:15:56;;;;;;;4.32;3.28;;;;;;;;;;7383648;19;20015;-72
2021/12/12 13:18:53;;;;;;;6.68;4.00;;;;;;;;;;7377306;19;20018;-71
2021/12/12 13:21:34;;;;;;;4.65;3.38;;;;;;;;;;7382431;19;20488;-73
2021/12/12 13:24:37;;;;;;;4.03;3.15;;;;;;;;;;7381376;19;20021;-73
2021/12/12 13:27:54;;;;;;;4.57;3.70;;;;;;;;;;7381063;19;20005;-73
2021/12/12 13:30:26;;;;;;;5.88;3.20;;;;;;;;;;7379713;19;20512;-74
2021/12/12 13:32:55;;;;;;;3.42;2.75;;;;;;;;;;7379220;19;20010;-73
2021/12/12 13:35:31;;;;;;;4.95;3.40;;;;;;;;;;7383061;19;20017;-72
2021/12/12 13:38:10;;;;;;;5.68;3.40;;;;;;;;;;7381291;19;20010;-73
2021/12/12 13:41:00;;;;;;;5.95;3.55;;;;;;;;;;7381402;19;20006;-73
2021/12/12 13:43:47;;;;;;;10.70;4.80;;;;;;;;;;7377453;19;20398;-74
2021/12/12 13:46:29;;;;;;;6.68;3.83;;;;;;;;;;7378778;19;20027;-73
2021/12/12 13:48:55;;;;;;;7.18;3.92;;;;;;;;;;7380732;19;20673;-74
2021/12/12 13:51:51;;;;;;;4.35;2.80;;;;;;;;;;7379040;19;20013;-72
2021/12/12 13:54:32;;;;;;;;;;;;;;;;;;7381543;19;20014;-72
2021/12/12 13:57:23;;;;;;;4.38;2.85;;;;;;;;;;7382200;19;19918;-72
2021/12/12 14:00:05;;;;;;;3.95;2.90;;;;;;;;;;7375110;19;20010;-72
2021/12/12 14:02:30;;;;;;;5.38;3.10;;;;;;;;;;7377687;19;20003;-73
2021/12/12 14:05:08;;;;;;;5.18;3.30;;;;;;;;;;7378341;19;20033;-72
2021/12/12 14:07:41;;;;;;;5.85;3.30;;;;;;;;;;7379372;19;20010;-71
2021/12/12 14:10:15;;;;;;;5.53;3.55;;;;;;;;;;7374269;19;20015;-73
2021/12/12 14:12:43;;;;;;;8.45;3.85;;;;;;;;;;7378357;19;20010;-72
2021/12/12 14:15:16;;;;;;;5.25;3.20;;;;;;;;;;7378706;19;20002;-73
2021/12/12 14:17:51;;;;;;;5.13;2.92;;;;;;;;;;7380003;19;20013;-72
2021/12/12 14:20:29;;;;;;;6.10;3.08;;;;;;;;;;7375115;19;20506;-74
2021/12/12 14:22:57;;;;;;;4.10;2.80;;;;;;;;;;7366696;19;20496;-75
2021/12/12 14:25:23;;;;;;;4.35;2.65;;;;;;;;;;7372267;19;20074;-73
2021/12/12 14:27:51;;;;;;;4.05;2.95;;;;;;;;;;7371417;19;20002;-76
2021/12/12 14:30:19;;;;;;;4.82;2.85;;;;;;;;;;7372534;19;20007;-72
2021/12/12 14:32:51;;;;;;;3.92;2.92;;;;;;;;;;7371982;19;19995;-72
2021/12/12 14:35:20;;;;;;;7.03;3.30;;;;;;;;;;7376068;19;20062;-72
2021/12/12 14:37:49;;;;;;;5.32;3.20;;;;;;;;;;7379946;19;20003;-72
2021/12/12 14:40:27;;;;;;;3.35;2.80;;;;;;;;;;7377928;19;19998;-74
2021/12/12 14:42:58;;;;;;;3.63;2.90;;;;;;;;;;7388217;19;20224;-75
2021/12/12 14:45:49;;;;;;;4.20;2.92;;;;;;;;;;7386766;19;20492;-76
2021/12/12 14:48:22;;;;;;;5.13;2.90;;;;;;;;;;7386512;19;20591;-73
2021/12/12 14:50:53;;;;;;;5.20;2.95;;;;;;;;;;7390874;19;20029;-72
2021/12/12 14:53:23;;;;;;;6.57;3.85;;;;;;;;;;7386569;19;20045;-77
2021/12/12 14:56:05;;;;;;;7.07;3.47;;;;;;;;;;7389611;19;20002;-77
2021/12/12 14:58:42;;;;;;;6.30;3.50;;;;;;;;;;7385950;19;20586;-75
2021/12/12 15:01:32;;;;;;;3.63;2.65;;;;;;;;;;7387247;19;20006;-77
2021/12/12 15:04:20;;;;;;;3.75;2.35;;;;;;;;;;7386391;19;20363;-78
2021/12/12 15:06:57;;;;;;;3.58;2.63;;;;;;;;;;7386628;19;20070;-75
2021/12/12 15:09:39;;;;;;;3.55;2.55;;;;;;;;;;7386227;19;19999;-78
2021/12/12 15:12:14;;;;;;;2.63;2.03;;;;;;;;;;7387279;19;20059;-72
2021/12/12 15:14:46;;;;;;;4.03;2.72;;;;;;;;;;7391535;19;20010;-72
2021/12/12 15:17:15;;;;;;;3.97;2.42;;;;;;;;;;7386369;19;19991;-73
2021/12/12 15:19:48;;;;;;;3.88;2.40;;;;;;;;;;7389843;19;19998;-72
2021/12/12 15:22:18;;;;;;;2.85;2.10;;;;;;;;;;7388028;19;19999;-73
2021/12/12 15:25:08;;;;;;;2.88;2.17;;;;;;;;;;7382721;19;19994;-77
2021/12/12 15:27:38;;;;;;;3.42;2.63;;;;;;;;;;7388454;19;20045;-76
2021/12/12 15:30:10;;;;;;;4.63;2.50;;;;;;;;;;7388614;19;20081;-72
2021/12/12 15:32:42;;;;;;;2.85;2.17;;;;;;;;;;7381867;19;20002;-76
2021/12/12 15:35:13;;;;;;;3.33;2.40;;;;;;;;;;7385615;19;20007;-77
2021/12/12 15:37:40;;;;;;;4.55;2.63;;;;;;;;;;7387860;19;20010;-73
2021/12/12 15:40:22;;;;;;;4.95;2.78;;;;;;;;;;7385506;19;20029;-78
2021/12/12 15:42:52;;;;;;;4.43;2.50;;;;;;;;;;7383534;19;20015;-78
2021/12/12 15:45:47;;;;;;;5.60;3.83;;;;;;;;;;7386210;19;20440;-73